sensor_id;sensor_type;location;lat;lon;timestamp;temperature;humidity
4090;DHT22;2059;48.538;12.146;2022-10-16T00:04:44;16.60;99.90
4090;DHT22;2059;48.538;12.146;2022-10-16T00:09:47;16.60;99.90
4090;DHT22;2059;48.538;12.146;2022-10-16T00:14:49;16.60;99.90
4090;DHT22;2059;48.538;12.146;2022-10-16T00:19:51;16.50;99.90
4090;DHT22;2059;48.538;12.146;2022-10-16T00:24:54;16.50;99.90
4090;DHT22;2059;48.538;12.146;2022-10-16T00:29:56;16.40;99.90
4090;DHT22;2059;48.538;12.146;2022-10-16T00:34:58;16.40;99.90
4090;DHT22;2059;48.538;12.146;2022-10-16T00:40:01;16.30;99.90
4090;DHT22;2059;48.538;12.146;2022-10-16T00:45:04;16.30;99.90
4090;DHT22;2059;48.538;12.146;2022-10-16T00:50:09;16.20;99.90
4090;DHT22;2059;48.538;12.146;2022-10-16T00:55:13;16.20;99.90
4090;DHT22;2059;48.538;12.146;2022-10-16T01:00:18;16.10;99.90
4090;DHT22;2059;48.538;12.146;2022-10-16T01:05:21;16.10;99.90
4090;DHT22;2059;48.538;12.146;2022-10-16T01:10:30;16.10;99.90
4090;DHT22;2059;48.538;12.146;2022-10-16T01:15:37;16.00;99.90
4090;DHT22;2059;48.538;12.146;2022-10-16T01:20:44;16.00;99.90
4090;DHT22;2059;48.538;12.146;2022-10-16T01:26:19;16.00;99.90
4090;DHT22;2059;48.538;12.146;2022-10-16T01:31:27;15.90;99.90
4090;DHT22;2059;48.538;12.146;2022-10-16T01:36:35;15.80;99.90
4090;DHT22;2059;48.538;12.146;2022-10-16T01:41:41;15.80;99.90
4090;DHT22;2059;48.538;12.146;2022-10-16T01:46:48;15.80;99.90
4090;DHT22;2059;48.538;12.146;2022-10-16T01:51:55;15.70;99.90
4090;DHT22;2059;48.538;12.146;2022-10-16T01:56:58;15.80;99.90
4090;DHT22;2059;48.538;12.146;2022-10-16T02:02:06;15.80;99.90
4090;DHT22;2059;48.538;12.146;2022-10-16T02:07:09;15.80;99.90
4090;DHT22;2059;48.538;12.146;2022-10-16T02:12:15;15.80;99.90
4090;DHT22;2059;48.538;12.146;2022-10-16T02:17:19;15.80;99.90
4090;DHT22;2059;48.538;12.146;2022-10-16T02:22:24;15.80;99.90
4090;DHT22;2059;48.538;12.146;2022-10-16T02:27:33;15.80;99.90
4090;DHT22;2059;48.538;12.146;2022-10-16T02:32:40;15.80;99.90
4090;DHT22;2059;48.538;12.146;2022-10-16T02:37:42;15.80;99.90
4090;DHT22;2059;48.538;12.146;2022-10-16T02:42:44;15.70;99.90
4090;DHT22;2059;48.538;12.146;2022-10-16T02:47:47;15.70;99.90
4090;DHT22;2059;48.538;12.146;2022-10-16T02:52:49;15.60;99.90
4090;DHT22;2059;48.538;12.146;2022-10-16T02:57:51;15.60;99.90
4090;DHT22;2059;48.538;12.146;2022-10-16T03:02:54;15.70;99.90
4090;DHT22;2059;48.538;12.146;2022-10-16T03:07:56;15.60;99.90
4090;DHT22;2059;48.538;12.146;2022-10-16T03:13:00;15.60;99.90
4090;DHT22;2059;48.538;12.146;2022-10-16T03:18:03;15.50;99.90
4090;DHT22;2059;48.538;12.146;2022-10-16T03:23:05;15.40;99.90
4090;DHT22;2059;48.538;12.146;2022-10-16T03:28:08;15.40;99.90
4090;DHT22;2059;48.538;12.146;2022-10-16T03:33:11;15.30;99.90
4090;DHT22;2059;48.538;12.146;2022-10-16T03:38:13;15.20;99.90
4090;DHT22;2059;48.538;12.146;2022-10-16T03:43:15;15.20;99.90
4090;DHT22;2059;48.538;12.146;2022-10-16T03:48:19;15.20;99.90
4090;DHT22;2059;48.538;12.146;2022-10-16T03:53:21;15.20;99.90
4090;DHT22;2059;48.538;12.146;2022-10-16T03:58:22;15.10;99.90
4090;DHT22;2059;48.538;12.146;2022-10-16T04:03:26;15.00;99.90
4090;DHT22;2059;48.538;12.146;2022-10-16T04:08:27;15.00;99.90
4090;DHT22;2059;48.538;12.146;2022-10-16T04:13:29;15.10;99.90
4090;DHT22;2059;48.538;12.146;2022-10-16T04:18:32;15.00;99.90
4090;DHT22;2059;48.538;12.146;2022-10-16T04:23:35;15.10;99.90
4090;DHT22;2059;48.538;12.146;2022-10-16T04:28:37;15.00;99.90
4090;DHT22;2059;48.538;12.146;2022-10-16T04:33:42;15.00;99.90
4090;DHT22;2059;48.538;12.146;2022-10-16T04:38:44;15.10;99.90
4090;DHT22;2059;48.538;12.146;2022-10-16T04:43:45;15.00;99.90
4090;DHT22;2059;48.538;12.146;2022-10-16T04:48:49;15.20;99.90
4090;DHT22;2059;48.538;12.146;2022-10-16T04:53:50;15.10;99.90
4090;DHT22;2059;48.538;12.146;2022-10-16T04:58:52;15.10;99.90
4090;DHT22;2059;48.538;12.146;2022-10-16T05:03:55;15.20;99.90
4090;DHT22;2059;48.538;12.146;2022-10-16T05:08:57;15.10;99.90
4090;DHT22;2059;48.538;12.146;2022-10-16T05:13:59;15.20;99.90
4090;DHT22;2059;48.538;12.146;2022-10-16T05:19:03;15.20;99.90
4090;DHT22;2059;48.538;12.146;2022-10-16T05:24:05;15.20;99.90
4090;DHT22;2059;48.538;12.146;2022-10-16T05:29:07;15.20;99.90
4090;DHT22;2059;48.538;12.146;2022-10-16T05:34:10;15.20;99.90
4090;DHT22;2059;48.538;12.146;2022-10-16T05:39:13;15.20;99.90
4090;DHT22;2059;48.538;12.146;2022-10-16T05:44:15;15.20;99.90
4090;DHT22;2059;48.538;12.146;2022-10-16T05:49:18;15.20;99.90
4090;DHT22;2059;48.538;12.146;2022-10-16T05:54:20;15.20;99.90
4090;DHT22;2059;48.538;12.146;2022-10-16T05:59:22;15.30;99.90
4090;DHT22;2059;48.538;12.146;2022-10-16T06:04:25;15.30;99.90
4090;DHT22;2059;48.538;12.146;2022-10-16T06:09:27;15.30;99.90
4090;DHT22;2059;48.538;12.146;2022-10-16T06:14:29;15.30;99.90
4090;DHT22;2059;48.538;12.146;2022-10-16T06:19:32;15.30;99.90
4090;DHT22;2059;48.538;12.146;2022-10-16T06:24:34;15.30;99.90
4090;DHT22;2059;48.538;12.146;2022-10-16T06:29:35;15.40;99.90
4090;DHT22;2059;48.538;12.146;2022-10-16T06:34:39;15.40;99.90
4090;DHT22;2059;48.538;12.146;2022-10-16T06:39:41;15.50;99.90
4090;DHT22;2059;48.538;12.146;2022-10-16T06:44:43;15.50;99.90
4090;DHT22;2059;48.538;12.146;2022-10-16T06:49:46;15.50;99.90
4090;DHT22;2059;48.538;12.146;2022-10-16T06:54:49;15.50;99.90
4090;DHT22;2059;48.538;12.146;2022-10-16T06:59:50;15.60;99.90
4090;DHT22;2059;48.538;12.146;2022-10-16T07:04:54;15.60;99.90
4090;DHT22;2059;48.538;12.146;2022-10-16T07:09:57;15.70;99.90
4090;DHT22;2059;48.538;12.146;2022-10-16T07:14:59;15.80;99.90
4090;DHT22;2059;48.538;12.146;2022-10-16T07:20:02;15.80;99.90
4090;DHT22;2059;48.538;12.146;2022-10-16T07:25:05;15.90;99.90
4090;DHT22;2059;48.538;12.146;2022-10-16T07:30:08;16.10;99.90
4090;DHT22;2059;48.538;12.146;2022-10-16T07:35:11;16.30;99.90
4090;DHT22;2059;48.538;12.146;2022-10-16T07:40:13;16.70;99.90
4090;DHT22;2059;48.538;12.146;2022-10-16T07:45:15;16.70;99.90
4090;DHT22;2059;48.538;12.146;2022-10-16T07:50:18;16.50;99.90
4090;DHT22;2059;48.538;12.146;2022-10-16T07:55:20;16.50;99.90
4090;DHT22;2059;48.538;12.146;2022-10-16T08:00:22;16.50;99.90
4090;DHT22;2059;48.538;12.146;2022-10-16T08:05:25;16.80;99.90
4090;DHT22;2059;48.538;12.146;2022-10-16T08:10:28;16.80;99.90
4090;DHT22;2059;48.538;12.146;2022-10-16T08:15:30;16.90;99.90
4090;DHT22;2059;48.538;12.146;2022-10-16T08:20:33;17.20;99.90
4090;DHT22;2059;48.538;12.146;2022-10-16T08:25:35;17.40;99.90
4090;DHT22;2059;48.538;12.146;2022-10-16T08:30:38;17.80;99.90
4090;DHT22;2059;48.538;12.146;2022-10-16T08:35:41;17.90;99.90
4090;DHT22;2059;48.538;12.146;2022-10-16T08:40:43;18.30;99.90
4090;DHT22;2059;48.538;12.146;2022-10-16T08:45:57;18.80;99.90
4090;DHT22;2059;48.538;12.146;2022-10-16T08:51:04;19.30;99.90
4090;DHT22;2059;48.538;12.146;2022-10-16T08:56:07;19.70;99.90
4090;DHT22;2059;48.538;12.146;2022-10-16T09:01:12;20.00;99.90
4090;DHT22;2059;48.538;12.146;2022-10-16T09:06:29;20.40;99.90
4090;DHT22;2059;48.538;12.146;2022-10-16T09:11:41;20.70;99.90
4090;DHT22;2059;48.538;12.146;2022-10-16T09:16:51;21.10;99.90
4090;DHT22;2059;48.538;12.146;2022-10-16T09:21:56;21.40;99.90
4090;DHT22;2059;48.538;12.146;2022-10-16T09:26:58;21.70;99.90
4090;DHT22;2059;48.538;12.146;2022-10-16T09:37:09;22.30;99.90
4090;DHT22;2059;48.538;12.146;2022-10-16T09:42:14;22.60;99.90
4090;DHT22;2059;48.538;12.146;2022-10-16T09:47:18;22.80;99.90
4090;DHT22;2059;48.538;12.146;2022-10-16T09:52:22;23.10;99.90
4090;DHT22;2059;48.538;12.146;2022-10-16T09:57:25;23.40;99.90
4090;DHT22;2059;48.538;12.146;2022-10-16T10:02:30;23.50;99.90
4090;DHT22;2059;48.538;12.146;2022-10-16T10:07:37;23.60;99.90
4090;DHT22;2059;48.538;12.146;2022-10-16T10:12:43;23.70;99.90
4090;DHT22;2059;48.538;12.146;2022-10-16T10:17:51;23.80;99.90
4090;DHT22;2059;48.538;12.146;2022-10-16T10:22:57;23.80;99.90
4090;DHT22;2059;48.538;12.146;2022-10-16T10:28:16;23.90;99.90
4090;DHT22;2059;48.538;12.146;2022-10-16T10:33:25;24.00;99.90
4090;DHT22;2059;48.538;12.146;2022-10-16T10:38:39;24.20;99.90
4090;DHT22;2059;48.538;12.146;2022-10-16T10:43:53;24.40;99.90
4090;DHT22;2059;48.538;12.146;2022-10-16T10:49:16;24.40;99.70
4090;DHT22;2059;48.538;12.146;2022-10-16T10:54:28;24.60;99.90
4090;DHT22;2059;48.538;12.146;2022-10-16T10:59:56;24.70;99.90
4090;DHT22;2059;48.538;12.146;2022-10-16T11:05:26;25.00;99.80
4090;DHT22;2059;48.538;12.146;2022-10-16T11:10:33;25.00;99.60
4090;DHT22;2059;48.538;12.146;2022-10-16T11:15:39;25.20;98.90
4090;DHT22;2059;48.538;12.146;2022-10-16T11:20:44;25.30;98.90
4090;DHT22;2059;48.538;12.146;2022-10-16T11:25:50;25.40;99.10
4090;DHT22;2059;48.538;12.146;2022-10-16T11:30:57;25.40;98.40
4090;DHT22;2059;48.538;12.146;2022-10-16T11:36:06;25.50;97.90
4090;DHT22;2059;48.538;12.146;2022-10-16T11:41:18;25.70;98.00
4090;DHT22;2059;48.538;12.146;2022-10-16T11:46:22;25.90;97.80
4090;DHT22;2059;48.538;12.146;2022-10-16T11:51:31;25.70;98.10
4090;DHT22;2059;48.538;12.146;2022-10-16T11:56:39;25.80;97.40
4090;DHT22;2059;48.538;12.146;2022-10-16T12:01:44;25.80;97.60
4090;DHT22;2059;48.538;12.146;2022-10-16T12:06:51;25.90;98.30
4090;DHT22;2059;48.538;12.146;2022-10-16T12:11:56;26.00;97.80
4090;DHT22;2059;48.538;12.146;2022-10-16T12:16:59;26.00;97.90
4090;DHT22;2059;48.538;12.146;2022-10-16T12:22:02;26.20;98.30
4090;DHT22;2059;48.538;12.146;2022-10-16T12:27:19;26.30;98.30
4090;DHT22;2059;48.538;12.146;2022-10-16T12:32:28;26.30;97.90
4090;DHT22;2059;48.538;12.146;2022-10-16T12:37:33;26.40;97.80
4090;DHT22;2059;48.538;12.146;2022-10-16T12:42:36;26.50;96.30
4090;DHT22;2059;48.538;12.146;2022-10-16T12:47:48;26.50;95.80
4090;DHT22;2059;48.538;12.146;2022-10-16T12:52:50;26.10;96.30
4090;DHT22;2059;48.538;12.146;2022-10-16T12:58:13;26.10;95.50
4090;DHT22;2059;48.538;12.146;2022-10-16T13:03:35;25.70;95.20
4090;DHT22;2059;48.538;12.146;2022-10-16T13:09:10;25.60;95.80
4090;DHT22;2059;48.538;12.146;2022-10-16T13:14:45;25.50;96.50
4090;DHT22;2059;48.538;12.146;2022-10-16T13:19:57;25.30;96.20
4090;DHT22;2059;48.538;12.146;2022-10-16T13:25:15;24.90;95.80
4090;DHT22;2059;48.538;12.146;2022-10-16T13:30:23;24.80;95.70
4090;DHT22;2059;48.538;12.146;2022-10-16T13:35:27;24.70;96.20
4090;DHT22;2059;48.538;12.146;2022-10-16T13:40:29;24.60;96.90
4090;DHT22;2059;48.538;12.146;2022-10-16T13:45:32;24.60;96.80
4090;DHT22;2059;48.538;12.146;2022-10-16T13:50:34;24.70;97.60
4090;DHT22;2059;48.538;12.146;2022-10-16T13:55:36;24.70;96.70
4090;DHT22;2059;48.538;12.146;2022-10-16T14:00:40;24.60;97.40
4090;DHT22;2059;48.538;12.146;2022-10-16T14:05:44;24.70;97.50
4090;DHT22;2059;48.538;12.146;2022-10-16T14:10:50;24.70;97.00
4090;DHT22;2059;48.538;12.146;2022-10-16T14:15:53;24.60;97.80
4090;DHT22;2059;48.538;12.146;2022-10-16T14:21:04;24.50;97.00
4090;DHT22;2059;48.538;12.146;2022-10-16T14:26:12;24.40;97.40
4090;DHT22;2059;48.538;12.146;2022-10-16T14:31:29;24.40;97.20
4090;DHT22;2059;48.538;12.146;2022-10-16T14:36:31;24.30;97.20
4090;DHT22;2059;48.538;12.146;2022-10-16T14:41:41;24.30;97.00
4090;DHT22;2059;48.538;12.146;2022-10-16T14:46:45;24.10;96.60
4090;DHT22;2059;48.538;12.146;2022-10-16T14:51:47;24.10;97.20
4090;DHT22;2059;48.538;12.146;2022-10-16T14:56:51;24.10;97.50
4090;DHT22;2059;48.538;12.146;2022-10-16T15:01:54;24.00;97.80
4090;DHT22;2059;48.538;12.146;2022-10-16T15:06:56;23.90;98.50
4090;DHT22;2059;48.538;12.146;2022-10-16T15:11:58;23.80;98.80
4090;DHT22;2059;48.538;12.146;2022-10-16T15:17:01;23.60;98.50
4090;DHT22;2059;48.538;12.146;2022-10-16T15:22:03;23.50;98.30
4090;DHT22;2059;48.538;12.146;2022-10-16T15:27:05;23.40;98.60
4090;DHT22;2059;48.538;12.146;2022-10-16T15:32:10;23.30;99.00
4090;DHT22;2059;48.538;12.146;2022-10-16T15:37:12;23.10;99.10
4090;DHT22;2059;48.538;12.146;2022-10-16T15:42:14;23.10;99.40
4090;DHT22;2059;48.538;12.146;2022-10-16T15:47:17;23.00;99.80
4090;DHT22;2059;48.538;12.146;2022-10-16T15:52:19;22.80;99.90
4090;DHT22;2059;48.538;12.146;2022-10-16T15:57:21;22.70;99.90
4090;DHT22;2059;48.538;12.146;2022-10-16T16:02:24;22.50;99.90
4090;DHT22;2059;48.538;12.146;2022-10-16T16:07:26;22.30;99.90
4090;DHT22;2059;48.538;12.146;2022-10-16T16:12:28;22.10;99.90
4090;DHT22;2059;48.538;12.146;2022-10-16T16:17:32;21.90;99.90
4090;DHT22;2059;48.538;12.146;2022-10-16T16:22:34;21.70;99.90
4090;DHT22;2059;48.538;12.146;2022-10-16T16:27:35;21.50;99.90
4090;DHT22;2059;48.538;12.146;2022-10-16T16:32:40;21.30;99.90
4090;DHT22;2059;48.538;12.146;2022-10-16T16:37:43;21.20;99.90
4090;DHT22;2059;48.538;12.146;2022-10-16T16:42:47;21.00;99.90
4090;DHT22;2059;48.538;12.146;2022-10-16T16:47:50;20.80;99.90
4090;DHT22;2059;48.538;12.146;2022-10-16T16:52:52;20.70;99.90
4090;DHT22;2059;48.538;12.146;2022-10-16T16:57:54;20.50;99.90
4090;DHT22;2059;48.538;12.146;2022-10-16T17:02:58;20.40;99.90
4090;DHT22;2059;48.538;12.146;2022-10-16T17:08:00;20.30;99.90
4090;DHT22;2059;48.538;12.146;2022-10-16T17:13:02;20.10;99.90
4090;DHT22;2059;48.538;12.146;2022-10-16T17:18:05;20.10;99.90
4090;DHT22;2059;48.538;12.146;2022-10-16T17:23:07;20.00;99.90
4090;DHT22;2059;48.538;12.146;2022-10-16T17:28:10;19.90;99.90
4090;DHT22;2059;48.538;12.146;2022-10-16T17:33:13;19.90;99.90
4090;DHT22;2059;48.538;12.146;2022-10-16T17:38:15;19.80;99.90
4090;DHT22;2059;48.538;12.146;2022-10-16T17:43:17;19.80;99.90
4090;DHT22;2059;48.538;12.146;2022-10-16T17:48:20;19.80;99.90
4090;DHT22;2059;48.538;12.146;2022-10-16T17:53:23;19.80;99.90
4090;DHT22;2059;48.538;12.146;2022-10-16T17:58:25;19.70;99.90
4090;DHT22;2059;48.538;12.146;2022-10-16T18:03:28;19.70;99.90
4090;DHT22;2059;48.538;12.146;2022-10-16T18:08:30;19.60;99.90
4090;DHT22;2059;48.538;12.146;2022-10-16T18:13:32;19.60;99.90
4090;DHT22;2059;48.538;12.146;2022-10-16T18:18:36;19.60;99.90
4090;DHT22;2059;48.538;12.146;2022-10-16T18:23:39;19.50;99.90
4090;DHT22;2059;48.538;12.146;2022-10-16T18:28:41;19.50;99.90
4090;DHT22;2059;48.538;12.146;2022-10-16T18:33:45;19.40;99.90
4090;DHT22;2059;48.538;12.146;2022-10-16T18:38:50;19.30;99.90
4090;DHT22;2059;48.538;12.146;2022-10-16T18:43:52;19.30;99.90
4090;DHT22;2059;48.538;12.146;2022-10-16T18:48:57;19.20;99.90
4090;DHT22;2059;48.538;12.146;2022-10-16T18:54:02;19.20;99.90
4090;DHT22;2059;48.538;12.146;2022-10-16T18:59:06;19.10;99.90
4090;DHT22;2059;48.538;12.146;2022-10-16T19:04:12;19.10;99.90
4090;DHT22;2059;48.538;12.146;2022-10-16T19:09:15;19.10;99.90
4090;DHT22;2059;48.538;12.146;2022-10-16T19:14:17;19.00;99.90
4090;DHT22;2059;48.538;12.146;2022-10-16T19:19:22;18.90;99.90
4090;DHT22;2059;48.538;12.146;2022-10-16T19:24:23;18.90;99.90
4090;DHT22;2059;48.538;12.146;2022-10-16T19:29:25;18.80;99.90
4090;DHT22;2059;48.538;12.146;2022-10-16T19:34:28;18.70;99.90
4090;DHT22;2059;48.538;12.146;2022-10-16T19:39:30;18.60;99.90
4090;DHT22;2059;48.538;12.146;2022-10-16T19:44:32;18.50;99.90
4090;DHT22;2059;48.538;12.146;2022-10-16T19:49:35;18.50;99.90
4090;DHT22;2059;48.538;12.146;2022-10-16T19:54:37;18.40;99.90
4090;DHT22;2059;48.538;12.146;2022-10-16T19:59:39;18.30;99.90
4090;DHT22;2059;48.538;12.146;2022-10-16T20:04:44;18.20;99.90
4090;DHT22;2059;48.538;12.146;2022-10-16T20:09:46;18.10;99.90
4090;DHT22;2059;48.538;12.146;2022-10-16T20:14:47;18.10;99.90
4090;DHT22;2059;48.538;12.146;2022-10-16T20:19:50;17.90;99.90
4090;DHT22;2059;48.538;12.146;2022-10-16T20:24:52;17.80;99.90
4090;DHT22;2059;48.538;12.146;2022-10-16T20:29:54;17.70;99.90
4090;DHT22;2059;48.538;12.146;2022-10-16T20:34:57;17.70;99.90
4090;DHT22;2059;48.538;12.146;2022-10-16T20:39:59;17.70;99.90
4090;DHT22;2059;48.538;12.146;2022-10-16T20:45:01;17.60;99.90
4090;DHT22;2059;48.538;12.146;2022-10-16T20:50:05;17.60;99.90
4090;DHT22;2059;48.538;12.146;2022-10-16T20:55:08;17.50;99.90
4090;DHT22;2059;48.538;12.146;2022-10-16T21:00:11;17.50;99.90
4090;DHT22;2059;48.538;12.146;2022-10-16T21:05:14;17.60;99.90
4090;DHT22;2059;48.538;12.146;2022-10-16T21:10:16;17.50;99.90
4090;DHT22;2059;48.538;12.146;2022-10-16T21:15:19;17.50;99.90
4090;DHT22;2059;48.538;12.146;2022-10-16T21:20:22;17.50;99.90
4090;DHT22;2059;48.538;12.146;2022-10-16T21:25:24;17.40;99.90
4090;DHT22;2059;48.538;12.146;2022-10-16T21:30:26;17.40;99.90
4090;DHT22;2059;48.538;12.146;2022-10-16T21:35:31;17.30;99.90
4090;DHT22;2059;48.538;12.146;2022-10-16T21:40:33;17.30;99.90
4090;DHT22;2059;48.538;12.146;2022-10-16T21:45:35;17.20;99.90
4090;DHT22;2059;48.538;12.146;2022-10-16T21:50:38;17.20;99.90
4090;DHT22;2059;48.538;12.146;2022-10-16T21:55:40;17.20;99.90
4090;DHT22;2059;48.538;12.146;2022-10-16T22:00:42;17.00;99.90
4090;DHT22;2059;48.538;12.146;2022-10-16T22:05:45;17.00;99.90
4090;DHT22;2059;48.538;12.146;2022-10-16T22:10:47;16.90;99.90
4090;DHT22;2059;48.538;12.146;2022-10-16T22:15:49;17.00;99.90
4090;DHT22;2059;48.538;12.146;2022-10-16T22:20:52;16.90;99.90
4090;DHT22;2059;48.538;12.146;2022-10-16T22:25:58;16.90;99.90
4090;DHT22;2059;48.538;12.146;2022-10-16T22:31:00;16.90;99.90
4090;DHT22;2059;48.538;12.146;2022-10-16T22:36:06;16.80;99.90
4090;DHT22;2059;48.538;12.146;2022-10-16T22:41:10;16.70;99.90
4090;DHT22;2059;48.538;12.146;2022-10-16T22:46:15;16.70;99.90
4090;DHT22;2059;48.538;12.146;2022-10-16T22:51:20;16.60;99.90
4090;DHT22;2059;48.538;12.146;2022-10-16T22:56:22;16.60;99.90
4090;DHT22;2059;48.538;12.146;2022-10-16T23:01:26;16.40;99.90
4090;DHT22;2059;48.538;12.146;2022-10-16T23:06:30;16.40;99.90
4090;DHT22;2059;48.538;12.146;2022-10-16T23:11:33;16.30;99.90
4090;DHT22;2059;48.538;12.146;2022-10-16T23:16:34;16.40;99.90
4090;DHT22;2059;48.538;12.146;2022-10-16T23:21:38;16.50;99.90
4090;DHT22;2059;48.538;12.146;2022-10-16T23:26:40;16.30;99.90
4090;DHT22;2059;48.538;12.146;2022-10-16T23:31:41;16.20;99.90
4090;DHT22;2059;48.538;12.146;2022-10-16T23:36:45;16.20;99.90
4090;DHT22;2059;48.538;12.146;2022-10-16T23:41:47;16.30;99.90
4090;DHT22;2059;48.538;12.146;2022-10-16T23:46:48;16.30;99.90
4090;DHT22;2059;48.538;12.146;2022-10-16T23:51:52;16.20;99.90
4090;DHT22;2059;48.538;12.146;2022-10-16T23:56:54;16.10;99.90
